Time;durP1;ratioP1;P1;durP2;ratioP2;P2;SDS_P1;SDS_P2;PMS_P1;PMS_P2;Temp;Humidity;BMP_temperature;BMP_pressure;BME280_temperature;BME280_humidity;BME280_pressure;Samples;Min_cycle;Max_cycle;Signal;HPM_P1;HPM_P2
2022/11/08 00:01:30;;;;;;;;;;;;;;;8.09;53.48;95295.13;4995141;28;19984;-77
2022/11/08 00:03:03;;;;;;;;;;;;;;;8.05;54.17;95289.31;5023467;28;19996;-77
2022/11/08 00:13:57;;;;;;;;;;;;;;;8.34;52.42;95277.28;4994213;28;20446;-77
2022/11/08 00:16:22;;;;;;;;;;;;;;;8.33;52.30;95285.41;4993200;28;19989;-77
2022/11/08 00:18:47;;;;;;;;;;;;;;;8.27;52.72;95279.78;5029293;28;19990;-77
2022/11/08 00:21:13;;;;;;;;;;;;;;;8.20;52.63;95278.84;4999088;28;19970;-77
2022/11/08 00:23:38;;;;;;;;;;;;;;;8.28;52.58;95277.97;4994184;28;20088;-77
2022/11/08 00:26:03;;;;;;;;;;;;;;;8.12;53.14;95274.38;4995363;28;20401;-77
2022/11/08 00:28:28;;;;;;;;;;;;;;;8.21;52.97;95277.00;4993377;28;20182;-77
2022/11/08 00:30:54;;;;;;;;;;;;;;;8.18;53.11;95278.19;4992445;28;20127;-77
2022/11/08 00:33:19;;;;;;;;;;;;;;;8.05;52.79;95274.25;4993429;28;20105;-77
2022/11/08 00:35:44;;;;;;;;;;;;;;;8.04;53.14;95277.06;4991574;28;20021;-77
2022/11/08 00:38:09;;;;;;;;;;;;;;;7.86;53.17;95269.31;4989085;28;19974;-77
2022/11/08 00:40:35;;;;;;;;;;;;;;;7.82;53.35;95273.31;4989756;28;19985;-77
2022/11/08 00:43:00;;;;;;;;;;;;;;;8.01;53.27;95267.63;4991166;28;20010;-77
2022/11/08 00:45:25;;;;;;;;;;;;;;;7.97;52.89;95268.97;4997137;28;19998;-77
2022/11/08 00:47:50;;;;;;;;;;;;;;;7.88;53.37;95270.81;4995099;28;20481;-77
2022/11/08 00:50:15;;;;;;;;;;;;;;;7.97;52.62;95276.91;4999122;28;20765;-77
2022/11/08 00:52:41;;;;;;;;;;;;;;;7.96;52.99;95274.44;4994864;28;19974;-77
2022/11/08 00:55:06;;;;;;;;;;;;;;;8.04;52.74;95271.75;4989841;28;20426;-77
2022/11/08 00:57:31;;;;;;;;;;;;;;;7.86;53.16;95270.13;4985423;28;19974;-77
2022/11/08 00:59:57;;;;;;;;;;;;;;;8.04;53.37;95264.63;4988001;28;19988;-77
2022/11/08 01:02:22;;;;;;;;;;;;;;;8.11;53.20;95269.25;4998805;28;20271;-77
2022/11/08 01:04:47;;;;;;;;;;;;;;;8.15;53.43;95266.09;4994405;28;20133;-77
2022/11/08 01:07:12;;;;;;;;;;;;;;;8.37;52.91;95268.16;4990942;28;20689;-77
2022/11/08 01:09:38;;;;;;;;;;;;;;;8.15;53.49;95265.25;4998854;28;20083;-77
2022/11/08 01:12:03;;;;;;;;;;;;;;;8.45;52.79;95265.47;4996388;28;19990;-77
2022/11/08 01:14:28;;;;;;;;;;;;;;;8.44;52.32;95261.16;4993332;28;20138;-77
2022/11/08 01:16:53;;;;;;;;;;;;;;;8.18;53.27;95265.75;4996520;28;20438;-77
2022/11/08 01:19:19;;;;;;;;;;;;;;;8.36;52.70;95259.38;4994384;28;20550;-77
2022/11/08 01:21:44;;;;;;;;;;;;;;;8.41;52.48;95261.50;4997651;28;19972;-77
2022/11/08 01:24:09;;;;;;;;;;;;;;;8.46;52.22;95258.34;4991506;28;20493;-77
2022/11/08 01:26:34;;;;;;;;;;;;;;;8.50;52.14;95260.47;4994790;28;19974;-77
2022/11/08 01:29:00;;;;;;;;;;;;;;;8.51;51.58;95254.19;4988571;28;20447;-77
2022/11/08 01:31:26;;;;;;;;;;;;;;;8.41;51.90;95258.84;4991040;28;20182;-77
2022/11/08 01:33:51;;;;;;;;;;;;;;;8.46;52.27;95261.00;5009720;28;20386;-77
2022/11/08 01:36:17;;;;;;;;;;;;;;;8.53;52.12;95254.81;4999164;28;20035;-77
2022/11/08 01:38:43;;;;;;;;;;;;;;;8.65;51.77;95251.78;4993670;28;19992;-78
2022/11/08 01:41:10;;;;;;;;;;;;;;;8.78;51.66;95249.34;4996925;28;20015;-77
2022/11/08 01:43:36;;;;;;;;;;;;;;;8.82;51.50;95258.66;4976509;28;20089;-78
2022/11/08 01:46:07;;;;;;;;;;;;;;;8.95;51.33;95258.06;5027404;28;20633;-78
2022/11/08 01:48:33;;;;;;;;;;;;;;;9.16;50.99;95255.78;4991972;28;19985;-78
2022/11/08 01:50:58;;;;;;;;;;;;;;;9.21;50.73;95250.75;4995664;28;20473;-78
2022/11/08 01:53:23;;;;;;;;;;;;;;;9.08;51.32;95248.72;4984326;28;19966;-77
2022/11/08 01:55:48;;;;;;;;;;;;;;;9.11;51.39;95244.88;4993602;28;20250;-77
2022/11/08 01:58:14;;;;;;;;;;;;;;;9.02;51.68;95236.97;4995102;28;19974;-77
2022/11/08 02:00:39;;;;;;;;;;;;;;;8.77;51.86;95242.41;4991976;28;19990;-77
2022/11/08 02:03:05;;;;;;;;;;;;;;;8.97;51.27;95243.81;4992801;28;20297;-78
2022/11/08 02:05:31;;;;;;;;;;;;;;;9.10;50.81;95238.72;4991449;28;19997;-78
2022/11/08 02:07:59;;;;;;;;;;;;;;;9.11;51.11;95234.25;4995134;28;20064;-77
2022/11/08 02:10:25;;;;;;;;;;;;;;;9.11;50.90;95235.06;4992487;28;19962;-78
2022/11/08 02:12:51;;;;;;;;;;;;;;;9.32;50.38;95226.41;5022841;28;20036;-78
2022/11/08 02:15:16;;;;;;;;;;;;;;;9.35;50.00;95222.56;4993268;28;19994;-78
2022/11/08 02:17:42;;;;;;;;;;;;;;;9.32;50.08;95226.41;4997397;28;20007;-78
2022/11/08 02:20:07;;;;;;;;;;;;;;;8.84;52.02;95231.09;4984391;28;19981;-78
2022/11/08 02:22:34;;;;;;;;;;;;;;;9.04;51.35;95228.78;4994905;28;19980;-78
2022/11/08 02:24:59;;;;;;;;;;;;;;;9.12;51.58;95225.28;4995549;28;20441;-78
2022/11/08 02:27:25;;;;;;;;;;;;;;;9.28;50.56;95225.13;4990438;28;19990;-78
2022/11/08 02:29:53;;;;;;;;;;;;;;;9.47;50.65;95228.28;4994010;28;19982;-77
2022/11/08 02:32:18;;;;;;;;;;;;;;;9.50;49.94;95221.78;4997542;28;20073;-78
2022/11/08 02:34:51;;;;;;;;;;;;;;;9.40;50.48;95220.22;4992970;28;20076;-77
2022/11/08 02:37:17;;;;;;;;;;;;;;;9.48;50.54;95219.28;4999680;28;20457;-77
2022/11/08 02:39:43;;;;;;;;;;;;;;;9.46;49.68;95203.53;4996198;28;19986;-77
2022/11/08 02:42:11;;;;;;;;;;;;;;;9.44;50.11;95212.69;5002011;28;20010;-78
2022/11/08 02:44:36;;;;;;;;;;;;;;;9.44;50.20;95202.06;4997891;28;20272;-77
2022/11/08 02:47:01;;;;;;;;;;;;;;;9.46;50.32;95203.53;4996675;28;20243;-77
2022/11/08 02:49:27;;;;;;;;;;;;;;;9.48;49.87;95213.19;4995443;28;19972;-77
2022/11/08 02:51:52;;;;;;;;;;;;;;;9.27;50.54;95201.41;5003699;28;20135;-78
2022/11/08 02:54:18;;;;;;;;;;;;;;;9.38;50.20;95203.63;4996266;28;20058;-78
2022/11/08 02:56:43;;;;;;;;;;;;;;;9.50;49.55;95203.19;4998736;28;20278;-77
2022/11/08 02:59:08;;;;;;;;;;;;;;;9.55;49.60;95195.47;4997769;28;20064;-78
2022/11/08 03:01:33;;;;;;;;;;;;;;;9.68;49.25;95190.38;5000358;28;20135;-77
2022/11/08 03:03:59;;;;;;;;;;;;;;;9.62;49.13;95187.63;4997139;28;20463;-77
2022/11/08 03:06:24;;;;;;;;;;;;;;;9.63;49.71;95189.25;4998329;28;20081;-78
2022/11/08 03:08:49;;;;;;;;;;;;;;;9.88;49.07;95184.50;4996389;28;19966;-77
2022/11/08 03:11:14;;;;;;;;;;;;;;;9.92;49.15;95179.63;4998126;28;20480;-78
2022/11/08 03:13:39;;;;;;;;;;;;;;;9.71;49.06;95179.38;4993183;28;19974;-77
2022/11/08 03:16:05;;;;;;;;;;;;;;;9.83;49.18;95171.75;4996356;28;20314;-77
2022/11/08 03:18:30;;;;;;;;;;;;;;;9.65;49.29;95171.31;5023517;28;19966;-77
2022/11/08 03:20:55;;;;;;;;;;;;;;;9.59;49.37;95163.03;4997920;28;19970;-77
2022/11/08 03:23:21;;;;;;;;;;;;;;;9.54;49.79;95157.47;4997684;28;20081;-77
2022/11/08 03:25:46;;;;;;;;;;;;;;;9.85;48.88;95167.09;5028858;28;19985;-77
2022/11/08 03:28:11;;;;;;;;;;;;;;;9.80;49.23;95160.66;4995744;28;19989;-77
2022/11/08 03:30:36;;;;;;;;;;;;;;;9.86;49.23;95154.59;4996957;28;20664;-78
2022/11/08 03:33:02;;;;;;;;;;;;;;;9.84;48.98;95146.00;4996853;28;20335;-77
2022/11/08 03:35:27;;;;;;;;;;;;;;;9.75;49.80;95139.16;4998191;28;20008;-78
2022/11/08 03:37:53;;;;;;;;;;;;;;;9.78;49.74;95134.28;4998644;28;19974;-78
2022/11/08 03:40:18;;;;;;;;;;;;;;;9.79;49.70;95127.94;4992049;28;20475;-78
2022/11/08 03:42:43;;;;;;;;;;;;;;;9.50;49.72;95128.78;5009231;28;20116;-77
2022/11/08 03:45:10;;;;;;;;;;;;;;;9.59;50.02;95127.69;4994906;28;20029;-77
2022/11/08 03:47:41;;;;;;;;;;;;;;;9.37;50.39;95129.41;4996934;28;20015;-77
2022/11/08 03:50:07;;;;;;;;;;;;;;;8.61;52.91;95123.94;4996385;28;19972;-77
2022/11/08 03:53:01;;;;;;;;;;;;;;;8.89;51.87;95134.00;5000330;28;19985;-77
2022/11/08 03:55:26;;;;;;;;;;;;;;;9.27;50.45;95121.69;4992818;28;19990;-78
2022/11/08 03:57:52;;;;;;;;;;;;;;;9.37;50.42;95126.75;4992551;28;19974;-77
2022/11/08 04:00:18;;;;;;;;;;;;;;;9.24;50.55;95128.22;4991713;28;20540;-78
2022/11/08 04:02:43;;;;;;;;;;;;;;;9.51;50.62;95125.94;4992225;28;19990;-77
2022/11/08 04:05:13;;;;;;;;;;;;;;;9.42;50.49;95130.50;4994152;28;20037;-77
2022/11/08 04:07:38;;;;;;;;;;;;;;;9.30;50.97;95132.81;4990040;28;20002;-77
2022/11/08 04:10:04;;;;;;;;;;;;;;;9.11;51.14;95122.72;4985430;28;19970;-78
2022/11/08 04:15:16;;;;;;;;;;;;;;;9.23;50.92;95109.78;4991169;28;19996;-77
2022/11/08 04:23:10;;;;;;;;;;;;;;;8.37;53.07;95106.34;4988102;28;20040;-78
2022/11/08 04:25:35;;;;;;;;;;;;;;;8.42;52.59;95088.91;4987823;28;20029;-77
2022/11/08 04:28:00;;;;;;;;;;;;;;;8.49;52.89;95091.66;4980847;28;19994;-78
2022/11/08 04:30:25;;;;;;;;;;;;;;;8.81;51.72;95089.75;4993889;28;19966;-77
2022/11/08 04:32:51;;;;;;;;;;;;;;;8.78;51.58;95097.25;4994788;28;20088;-77
2022/11/08 04:35:16;;;;;;;;;;;;;;;8.98;51.01;95087.00;4991549;28;20366;-77
2022/11/08 04:37:41;;;;;;;;;;;;;;;8.43;52.57;95085.25;4992461;28;19974;-77
2022/11/08 04:40:07;;;;;;;;;;;;;;;8.62;51.82;95087.59;4990634;28;19990;-78
2022/11/08 04:42:32;;;;;;;;;;;;;;;8.47;51.59;95091.00;4986134;28;19990;-77
2022/11/08 04:44:57;;;;;;;;;;;;;;;8.54;50.96;95083.19;4990643;28;20182;-77
2022/11/08 04:47:22;;;;;;;;;;;;;;;8.22;52.22;95077.94;4987678;28;20089;-77
2022/11/08 04:49:48;;;;;;;;;;;;;;;8.20;52.41;95073.81;4992217;28;20441;-77
2022/11/08 04:52:14;;;;;;;;;;;;;;;8.00;52.44;95080.41;4992220;28;20064;-77
2022/11/08 04:54:43;;;;;;;;;;;;;;;8.00;52.43;95069.81;4992792;28;20404;-77
2022/11/08 04:57:08;;;;;;;;;;;;;;;8.03;52.54;95069.44;4992491;28;20205;-77
2022/11/08 04:59:33;;;;;;;;;;;;;;;7.84;53.07;95060.13;4992953;28;20273;-77
2022/11/08 05:01:59;;;;;;;;;;;;;;;7.69;52.90;95057.34;4989210;28;19988;-77
2022/11/08 05:04:24;;;;;;;;;;;;;;;7.71;52.93;95052.69;4989141;28;20519;-77
2022/11/08 05:06:49;;;;;;;;;;;;;;;7.78;52.51;95051.03;4993687;28;19990;-77
2022/11/08 05:09:14;;;;;;;;;;;;;;;7.83;51.91;95047.03;4989365;28;19978;-77
2022/11/08 05:11:40;;;;;;;;;;;;;;;7.58;53.03;95047.94;4994195;28;20025;-77
2022/11/08 05:14:05;;;;;;;;;;;;;;;7.78;52.18;95042.25;4987116;28;19978;-77
2022/11/08 05:16:31;;;;;;;;;;;;;;;7.59;52.61;95040.84;4991187;28;20455;-77
2022/11/08 05:18:56;;;;;;;;;;;;;;;7.67;51.99;95043.44;4980310;28;19994;-77
2022/11/08 05:24:05;;;;;;;;;;;;;;;7.25;53.40;95043.63;4992031;28;20067;-77
2022/11/08 05:26:32;;;;;;;;;;;;;;;7.08;54.41;95042.88;4989107;28;20435;-77
2022/11/08 05:28:57;;;;;;;;;;;;;;;7.23;53.54;95045.63;4990886;28;19977;-77
2022/11/08 05:31:22;;;;;;;;;;;;;;;7.20;53.44;95045.97;4993240;28;20045;-77
2022/11/08 05:33:47;;;;;;;;;;;;;;;7.36;52.74;95052.19;4993507;28;20240;-77
2022/11/08 05:36:13;;;;;;;;;;;;;;;7.24;53.38;95047.28;4991188;28;19990;-77
2022/11/08 05:38:38;;;;;;;;;;;;;;;7.35;53.54;95046.06;4989175;28;20021;-77
2022/11/08 05:41:08;;;;;;;;;;;;;;;7.09;53.29;95051.63;4988924;28;20335;-77
2022/11/08 05:43:33;;;;;;;;;;;;;;;6.83;54.06;95042.91;4986145;28;20537;-77
2022/11/08 05:45:59;;;;;;;;;;;;;;;6.89;54.15;95044.06;4990756;28;20018;-77
2022/11/08 05:48:24;;;;;;;;;;;;;;;7.05;54.24;95050.31;4991617;28;19990;-77
2022/11/08 05:50:49;;;;;;;;;;;;;;;7.01;54.50;95049.84;4989991;28;19989;-77
2022/11/08 05:53:15;;;;;;;;;;;;;;;6.99;54.50;95041.22;4989183;28;20339;-77
2022/11/08 05:55:40;;;;;;;;;;;;;;;7.16;53.65;95036.72;4992352;28;20000;-77
2022/11/08 05:58:05;;;;;;;;;;;;;;;6.96;54.04;95041.56;4970928;28;20013;-77
2022/11/08 06:00:31;;;;;;;;;;;;;;;6.97;54.56;95032.66;4989566;28;19997;-77
2022/11/08 06:02:56;;;;;;;;;;;;;;;6.50;55.56;95033.19;4986936;28;19997;-77
2022/11/08 06:05:21;;;;;;;;;;;;;;;6.79;54.12;95035.47;4993228;28;20042;-77
2022/11/08 06:07:47;;;;;;;;;;;;;;;6.95;54.36;95047.84;4992245;28;20195;-77
2022/11/08 06:10:12;;;;;;;;;;;;;;;6.94;53.99;95039.06;5004562;28;20494;-77
2022/11/08 06:12:37;;;;;;;;;;;;;;;6.57;54.77;95051.91;4990307;28;19986;-77
2022/11/08 06:15:03;;;;;;;;;;;;;;;6.45;55.40;95039.94;4986405;28;20005;-77
2022/11/08 06:17:29;;;;;;;;;;;;;;;6.57;55.65;95043.13;4989647;28;19965;-77
2022/11/08 06:19:54;;;;;;;;;;;;;;;6.97;53.46;95012.28;4993368;28;20237;-77
2022/11/08 06:22:19;;;;;;;;;;;;;;;6.34;56.71;95023.44;5007111;28;20081;-77
2022/11/08 06:24:44;;;;;;;;;;;;;;;6.30;55.13;95016.00;4994700;28;20501;-77
2022/11/08 06:27:10;;;;;;;;;;;;;;;6.79;53.31;95006.38;4988647;28;19998;-77
2022/11/08 06:29:35;;;;;;;;;;;;;;;6.95;53.21;94998.41;4983501;28;20068;-77
2022/11/08 06:32:00;;;;;;;;;;;;;;;6.41;55.92;95006.91;4987134;28;20026;-77
2022/11/08 06:34:26;;;;;;;;;;;;;;;6.53;54.50;95010.06;4988837;28;20343;-77
2022/11/08 06:36:51;;;;;;;;;;;;;;;6.69;54.49;95025.06;4991087;28;20350;-77
2022/11/08 06:39:17;;;;;;;;;;;;;;;6.87;52.64;95015.13;4990135;28;20030;-77
2022/11/08 06:41:42;;;;;;;;;;;;;;;6.74;53.37;95013.00;4989703;28;20389;-77
2022/11/08 06:44:07;;;;;;;;;;;;;;;6.95;52.73;95009.00;4992599;28;19998;-77
2022/11/08 06:46:32;;;;;;;;;;;;;;;7.10;51.92;95016.19;4989700;28;20185;-77
2022/11/08 06:48:58;;;;;;;;;;;;;;;6.97;52.93;95019.41;4990888;28;20028;-71
2022/11/08 06:51:23;;;;;;;;;;;;;;;7.05;52.77;95022.03;4987115;28;19986;-67
2022/11/08 06:53:48;;;;;;;;;;;;;;;7.12;52.67;95032.75;4991792;28;20422;-67
2022/11/08 06:56:13;;;;;;;;;;;;;;;7.02;53.26;95044.38;4989771;28;19985;-67
2022/11/08 06:58:39;;;;;;;;;;;;;;;7.09;52.62;95043.69;4989035;28;19986;-66
2022/11/08 07:01:04;;;;;;;;;;;;;;;7.05;53.33;95050.31;4992222;28;20602;-67
2022/11/08 07:03:30;;;;;;;;;;;;;;;6.86;55.44;95041.75;4985494;28;20402;-67
2022/11/08 07:05:55;;;;;;;;;;;;;;;6.73;56.65;95042.25;4992706;28;20390;-66
2022/11/08 07:08:20;;;;;;;;;;;;;;;6.73;56.27;95043.09;4992454;28;20005;-66
2022/11/08 07:10:46;;;;;;;;;;;;;;;6.95;56.10;95043.41;4992399;28;19994;-67
2022/11/08 07:13:11;;;;;;;;;;;;;;;6.94;55.81;95043.56;5000371;28;20407;-67
2022/11/08 07:15:36;;;;;;;;;;;;;;;7.07;55.58;95046.50;4999421;28;20453;-67
2022/11/08 07:18:02;;;;;;;;;;;;;;;7.11;55.58;95049.66;4998394;28;20607;-66
2022/11/08 07:20:28;;;;;;;;;;;;;;;7.11;55.51;95052.28;4987718;28;20417;-66
2022/11/08 07:22:54;;;;;;;;;;;;;;;7.38;54.35;95040.44;4986512;28;20021;-67
2022/11/08 07:25:19;;;;;;;;;;;;;;;7.45;54.33;95045.03;4989415;28;20335;-66
2022/11/08 07:27:44;;;;;;;;;;;;;;;7.48;54.10;95056.09;4993755;28;20009;-66
2022/11/08 07:30:10;;;;;;;;;;;;;;;7.66;52.93;95053.22;4993425;28;19970;-67
2022/11/08 07:32:35;;;;;;;;;;;;;;;7.98;51.79;95058.53;4994464;28;20004;-67
2022/11/08 07:35:00;;;;;;;;;;;;;;;8.11;51.56;95067.75;4993341;28;19994;-67
2022/11/08 07:37:25;;;;;;;;;;;;;;;8.24;50.96;95062.69;4992817;28;19974;-67
2022/11/08 07:39:50;;;;;;;;;;;;;;;8.28;50.92;95069.28;4989915;28;20081;-67
2022/11/08 07:42:16;;;;;;;;;;;;;;;8.21;50.96;95071.00;4992340;28;20041;-67
2022/11/08 07:44:41;;;;;;;;;;;;;;;8.25;51.47;95068.78;4989199;28;20076;-66
2022/11/08 07:47:06;;;;;;;;;;;;;;;8.35;50.86;95068.56;4996391;28;19993;-66
2022/11/08 07:49:31;;;;;;;;;;;;;;;8.34;51.42;95066.91;4988553;28;20113;-67
2022/11/08 07:51:57;;;;;;;;;;;;;;;8.39;50.83;95062.72;4995652;28;20108;-67
2022/11/08 07:54:22;;;;;;;;;;;;;;;8.57;50.24;95062.41;4990338;28;19980;-66
2022/11/08 07:56:47;;;;;;;;;;;;;;;8.75;49.69;95063.94;4994321;28;20505;-67
2022/11/08 07:59:12;;;;;;;;;;;;;;;8.77;49.24;95056.59;4991397;28;20382;-67
2022/11/08 08:01:38;;;;;;;;;;;;;;;8.55;50.32;95056.47;4994698;28;20000;-68
2022/11/08 08:04:03;;;;;;;;;;;;;;;8.74;50.06;95054.31;4987736;28;19990;-67
2022/11/08 08:06:28;;;;;;;;;;;;;;;8.78;50.00;95058.25;4993333;28;19997;-68
2022/11/08 08:08:54;;;;;;;;;;;;;;;8.66;49.89;95057.03;4990526;28;20358;-67
2022/11/08 08:11:19;;;;;;;;;;;;;;;8.48;51.00;95052.88;4990142;28;20089;-66
2022/11/08 08:13:44;;;;;;;;;;;;;;;9.02;49.18;95053.75;4993698;28;20080;-66
2022/11/08 08:16:09;;;;;;;;;;;;;;;9.13;49.26;95054.28;4995731;28;19993;-68
2022/11/08 08:18:35;;;;;;;;;;;;;;;9.04;49.27;95058.84;4989653;28;20001;-67
2022/11/08 08:21:00;;;;;;;;;;;;;;;9.33;49.03;95052.75;4989971;28;19977;-68
2022/11/08 08:23:25;;;;;;;;;;;;;;;9.39;48.46;95053.81;4991984;28;20001;-68
2022/11/08 08:25:51;;;;;;;;;;;;;;;9.63;48.46;95056.38;4989743;28;20308;-68
2022/11/08 08:28:16;;;;;;;;;;;;;;;9.58;47.45;95065.72;4990237;28;19994;-68
2022/11/08 08:30:42;;;;;;;;;;;;;;;9.52;47.29;95061.16;4989926;28;20044;-67
2022/11/08 08:33:08;;;;;;;;;;;;;;;9.55;47.83;95060.78;4987880;28;19974;-67
2022/11/08 08:35:34;;;;;;;;;;;;;;;9.72;47.87;95055.25;4990508;28;20688;-67
2022/11/08 08:37:59;;;;;;;;;;;;;;;9.94;47.21;95056.13;4990777;28;20009;-67
2022/11/08 08:40:24;;;;;;;;;;;;;;;10.47;46.07;95051.53;4991683;28;20023;-67
2022/11/08 08:42:50;;;;;;;;;;;;;;;10.28;46.14;95050.34;4987410;28;20522;-66
2022/11/08 08:45:15;;;;;;;;;;;;;;;10.20;45.00;95053.97;4981316;28;20626;-67
2022/11/08 08:47:40;;;;;;;;;;;;;;;9.93;45.19;95053.66;4987889;28;20009;-67
2022/11/08 08:50:06;;;;;;;;;;;;;;;10.19;46.19;95049.66;4992748;28;19974;-68
2022/11/08 08:52:31;;;;;;;;;;;;;;;10.16;45.19;95047.38;4989747;28;20001;-67
2022/11/08 08:54:56;;;;;;;;;;;;;;;10.16;43.43;95053.50;4991503;28;20460;-67
2022/11/08 08:57:21;;;;;;;;;;;;;;;10.48;45.06;95042.56;4988573;28;19982;-67
2022/11/08 08:59:47;;;;;;;;;;;;;;;10.54;44.91;95044.44;4992287;28;20344;-67
2022/11/08 09:02:12;;;;;;;;;;;;;;;10.76;44.48;95049.75;4993694;28;19981;-68
2022/11/08 09:04:37;;;;;;;;;;;;;;;11.08;43.10;95042.19;4989326;28;20059;-67
2022/11/08 09:07:03;;;;;;;;;;;;;;;10.98;43.20;95049.72;4988029;28;19990;-67
2022/11/08 09:09:28;;;;;;;;;;;;;;;10.82;44.10;95046.31;4987928;28;20282;-67
2022/11/08 09:11:53;;;;;;;;;;;;;;;11.09;43.66;95038.50;4993511;28;20036;-67
2022/11/08 09:14:19;;;;;;;;;;;;;;;10.92;41.86;95042.47;4990383;28;20353;-68
2022/11/08 09:16:44;;;;;;;;;;;;;;;11.31;42.66;95029.63;4985444;28;20072;-67
2022/11/08 09:19:09;;;;;;;;;;;;;;;11.43;42.73;95043.22;4984104;28;20041;-67
2022/11/08 09:21:34;;;;;;;;;;;;;;;11.52;42.64;95040.19;4985914;28;20007;-68
2022/11/08 09:24:00;;;;;;;;;;;;;;;10.69;43.83;95036.38;4987940;28;19998;-67
2022/11/08 09:26:25;;;;;;;;;;;;;;;11.49;42.63;95031.78;4992536;28;20012;-67
2022/11/08 09:28:50;;;;;;;;;;;;;;;11.76;41.81;95037.19;4987513;28;19974;-67
2022/11/08 09:31:15;;;;;;;;;;;;;;;11.92;41.32;95025.34;4990480;28;20560;-68
2022/11/08 09:33:41;;;;;;;;;;;;;;;11.78;41.17;95037.84;4992926;28;19978;-68
2022/11/08 09:36:06;;;;;;;;;;;;;;;11.37;42.02;95039.50;4988395;28;19994;-68
2022/11/08 09:38:32;;;;;;;;;;;;;;;11.72;41.29;95031.44;4985575;28;20028;-68
2022/11/08 09:41:11;;;;;;;;;;;;;;;11.61;39.90;95034.69;4989660;28;20064;-67
2022/11/08 09:43:50;;;;;;;;;;;;;;;10.87;41.94;95027.91;4989954;28;19994;-68
2022/11/08 09:46:17;;;;;;;;;;;;;;;11.59;41.22;95015.41;4989739;28;20032;-68
2022/11/08 09:48:43;;;;;;;;;;;;;;;11.66;40.64;95018.09;4967486;28;19993;-68
2022/11/08 09:51:14;;;;;;;;;;;;;;;11.71;38.68;95021.81;4981215;28;19990;-67
2022/11/08 09:53:44;;;;;;;;;;;;;;;11.76;41.08;95014.03;4969052;28;19982;-68
2022/11/08 09:56:12;;;;;;;;;;;;;;;11.36;38.83;95019.22;4969776;28;19986;-67
2022/11/08 09:58:51;;;;;;;;;;;;;;;12.16;39.41;95009.84;4969501;28;19993;-67
2022/11/08 10:01:16;;;;;;;;;;;;;;;12.31;37.95;95011.50;4971902;28;19980;-68
2022/11/08 10:03:43;;;;;;;;;;;;;;;12.53;37.76;95018.31;4971047;28;19990;-68
2022/11/08 10:06:27;;;;;;;;;;;;;;;12.21;38.56;95025.25;4968987;28;20377;-67
2022/11/08 10:08:54;;;;;;;;;;;;;;;10.65;41.01;95031.63;4986983;28;20000;-68
2022/11/08 10:11:23;;;;;;;;;;;;;;;11.60;40.32;95028.53;4987609;28;19993;-67
2022/11/08 10:13:51;;;;;;;;;;;;;;;12.15;38.29;95042.88;4990871;28;19966;-67
2022/11/08 10:16:28;;;;;;;;;;;;;;;11.74;38.25;95039.25;4987958;28;20514;-68
2022/11/08 10:19:14;;;;;;;;;;;;;;;12.10;37.98;95042.69;4987394;28;20474;-68
2022/11/08 10:21:39;;;;;;;;;;;;;;;11.51;40.38;95064.38;4983683;28;20327;-68
2022/11/08 10:24:08;;;;;;;;;;;;;;;9.32;42.69;95061.72;4988020;28;19997;-67
2022/11/08 10:26:34;;;;;;;;;;;;;;;10.98;39.80;95076.34;4991153;28;19993;-68
2022/11/08 10:29:07;;;;;;;;;;;;;;;11.44;40.03;95066.19;4985263;28;19974;-68
2022/11/08 10:31:33;;;;;;;;;;;;;;;11.60;39.15;95063.19;4989500;28;19998;-67
2022/11/08 10:33:58;;;;;;;;;;;;;;;10.70;39.61;95061.16;4986230;28;19976;-68
2022/11/08 10:36:23;;;;;;;;;;;;;;;11.62;40.13;95052.31;4986110;28;20021;-67
2022/11/08 10:38:51;;;;;;;;;;;;;;;11.88;39.71;95053.47;4988536;28;20028;-68
2022/11/08 10:41:16;;;;;;;;;;;;;;;11.80;38.11;95058.97;4989239;28;19966;-68
2022/11/08 10:43:46;;;;;;;;;;;;;;;11.47;39.51;95060.47;4988560;28;20044;-67
2022/11/08 10:46:43;;;;;;;;;;;;;;;11.92;39.60;95061.88;4987812;28;20008;-67
2022/11/08 10:49:27;;;;;;;;;;;;;;;11.22;39.94;95066.28;4977046;28;20562;-67
2022/11/08 10:51:59;;;;;;;;;;;;;;;11.38;41.53;95049.13;4992552;28;20290;-68
2022/11/08 10:54:43;;;;;;;;;;;;;;;11.82;39.70;95049.75;4990314;28;20509;-68
2022/11/08 10:57:12;;;;;;;;;;;;;;;11.84;39.86;95046.88;4994903;28;20480;-67
2022/11/08 10:59:38;;;;;;;;;;;;;;;11.95;40.69;95040.13;4996824;28;20039;-68
2022/11/08 11:02:14;;;;;;;;;;;;;;;11.38;38.90;95033.97;4995163;28;19981;-67
2022/11/08 11:04:39;;;;;;;;;;;;;;;11.49;41.65;95034.44;4991135;28;19994;-67
2022/11/08 11:07:26;;;;;;;;;;;;;;;11.83;40.26;95024.72;4994144;28;20011;-68
2022/11/08 11:09:51;;;;;;;;;;;;;;;12.00;40.41;95024.38;4995514;28;20027;-68
2022/11/08 11:12:17;;;;;;;;;;;;;;;11.71;39.14;95029.81;4990185;28;20033;-68
2022/11/08 11:14:42;;;;;;;;;;;;;;;11.55;38.68;95020.31;4991652;28;20513;-68
2022/11/08 11:17:14;;;;;;;;;;;;;;;11.74;41.13;95015.25;4990741;28;19978;-67
2022/11/08 11:19:40;;;;;;;;;;;;;;;12.16;38.26;95007.16;4990906;28;20232;-68
2022/11/08 11:22:06;;;;;;;;;;;;;;;12.02;40.44;95009.78;4985101;28;20083;-68
2022/11/08 11:24:33;;;;;;;;;;;;;;;11.70;40.17;95004.16;4991582;28;19993;-67
2022/11/08 11:26:59;;;;;;;;;;;;;;;12.01;40.44;95002.00;4991191;28;19997;-68
2022/11/08 11:29:28;;;;;;;;;;;;;;;12.34;39.50;95017.25;5027347;28;19965;-68
2022/11/08 11:31:53;;;;;;;;;;;;;;;11.93;40.70;95011.00;4990603;28;20066;-68
2022/11/08 11:34:19;;;;;;;;;;;;;;;12.27;39.80;95005.75;4992268;28;19981;-68
2022/11/08 11:36:53;;;;;;;;;;;;;;;12.32;38.12;95007.81;4993253;28;19970;-67
2022/11/08 11:39:27;;;;;;;;;;;;;;;12.14;39.72;95002.03;4989351;28;19993;-68
2022/11/08 11:41:54;;;;;;;;;;;;;;;11.94;38.86;95012.66;5021056;28;19983;-67
2022/11/08 11:44:20;;;;;;;;;;;;;;;12.27;39.93;95001.22;4990630;28;20399;-68
2022/11/08 11:47:04;;;;;;;;;;;;;;;12.54;39.63;94995.91;4990938;28;20652;-68
2022/11/08 11:49:30;;;;;;;;;;;;;;;12.48;39.49;94986.03;4992625;28;20020;-68
2022/11/08 11:51:55;;;;;;;;;;;;;;;12.65;38.39;94993.66;4989476;28;20447;-67
2022/11/08 11:54:22;;;;;;;;;;;;;;;12.49;39.13;94997.56;4990827;28;19973;-67
2022/11/08 11:56:55;;;;;;;;;;;;;;;12.56;39.40;95001.03;4986418;28;19970;-68
2022/11/08 11:59:24;;;;;;;;;;;;;;;10.97;40.40;95003.59;4991230;28;20065;-68
2022/11/08 12:02:08;;;;;;;;;;;;;;;11.42;41.29;94989.09;4987803;28;19966;-67
2022/11/08 12:04:52;;;;;;;;;;;;;;;11.84;40.62;94986.38;4987589;28;20362;-67
2022/11/08 12:07:17;;;;;;;;;;;;;;;11.80;40.96;94981.63;4992411;28;20084;-67
2022/11/08 12:09:42;;;;;;;;;;;;;;;12.01;40.42;94981.44;5022483;28;20065;-67
2022/11/08 12:12:26;;;;;;;;;;;;;;;12.02;39.70;94979.63;4993942;28;20092;-68
2022/11/08 12:14:52;;;;;;;;;;;;;;;12.27;40.08;94979.06;4987733;28;20092;-68
2022/11/08 12:17:17;;;;;;;;;;;;;;;11.91;38.48;94967.72;4989773;28;20023;-68
2022/11/08 12:19:54;;;;;;;;;;;;;;;11.98;38.96;94967.72;4986646;28;20105;-66
2022/11/08 12:22:23;;;;;;;;;;;;;;;12.21;39.81;94961.22;4989777;28;20007;-66
2022/11/08 12:25:01;;;;;;;;;;;;;;;12.73;39.29;94971.25;4992630;28;19970;-67
2022/11/08 12:27:29;;;;;;;;;;;;;;;12.84;38.49;94961.75;4985759;28;19986;-67
2022/11/08 12:30:07;;;;;;;;;;;;;;;12.56;39.42;94963.66;4986562;28;20044;-67
2022/11/08 12:32:51;;;;;;;;;;;;;;;12.67;39.13;94960.38;4984000;28;20080;-67
2022/11/08 12:35:35;;;;;;;;;;;;;;;12.56;37.45;94960.16;4991840;28;19997;-67
2022/11/08 12:38:19;;;;;;;;;;;;;;;12.21;39.60;94969.22;4996782;28;19985;-68
2022/11/08 12:41:06;;;;;;;;;;;;;;;12.59;39.14;94954.41;4989128;28;20001;-68
2022/11/08 12:43:38;;;;;;;;;;;;;;;12.69;37.66;94948.66;5025514;28;20001;-68
2022/11/08 12:46:15;;;;;;;;;;;;;;;12.85;38.97;94936.72;4993498;28;20488;-67
2022/11/08 12:48:47;;;;;;;;;;;;;;;11.95;39.86;94933.44;4988739;28;20001;-67
2022/11/08 12:51:24;;;;;;;;;;;;;;;11.98;37.75;94941.03;4993026;28;20303;-67
2022/11/08 12:53:59;;;;;;;;;;;;;;;11.68;39.33;94947.56;4990699;28;19968;-67
2022/11/08 12:56:28;;;;;;;;;;;;;;;11.99;39.82;94935.50;5018003;28;20440;-67
2022/11/08 12:58:54;;;;;;;;;;;;;;;12.41;38.73;94931.84;4986530;28;20141;-67
2022/11/08 13:01:19;;;;;;;;;;;;;;;12.52;38.14;94931.19;4990435;28;20040;-67
2022/11/08 13:03:51;;;;;;;;;;;;;;;12.36;39.06;94931.63;4988007;28;19986;-68
2022/11/08 13:06:29;;;;;;;;;;;;;;;12.10;38.32;94926.09;4994036;28;20451;-67
2022/11/08 13:08:56;;;;;;;;;;;;;;;12.39;39.42;94929.41;5021380;28;20000;-67
2022/11/08 13:11:23;;;;;;;;;;;;;;;12.52;39.12;94925.06;4989002;28;19990;-67